Time;durP1;ratioP1;P1;durP2;ratioP2;P2;SDS_P1;SDS_P2;PMS_P1;PMS_P2;Temp;Humidity;BMP_temperature;BMP_pressure;BME280_temperature;BME280_humidity;BME280_pressure;Samples;Min_cycle;Max_cycle;Signal;HPM_P1;HPM_P2
2023/04/09 00:02:18;;;;;;;0.10;0.10;;;;;;;;;;5014572;28;20088;-82
2023/04/09 00:04:43;;;;;;;0.17;0.17;;;;;;;;;;5014648;28;20033;-82
2023/04/09 00:07:09;;;;;;;2.40;0.75;;;;;;;;;;5014701;28;20030;-81
2023/04/09 00:09:34;;;;;;;0.10;0.10;;;;;;;;;;5014671;28;20092;-82
2023/04/09 00:12:00;;;;;;;0.20;0.20;;;;;;;;;;5014550;28;20046;-82
2023/04/09 00:14:26;;;;;;;0.40;0.40;;;;;;;;;;5014896;28;20061;-83
2023/04/09 00:16:52;;;;;;;0.10;0.10;;;;;;;;;;5017588;28;20433;-81
2023/04/09 00:19:17;;;;;;;0.20;0.20;;;;;;;;;;4999962;28;20041;-82
2023/04/09 00:21:42;;;;;;;0.28;0.28;;;;;;;;;;4999301;28;20056;-84
2023/04/09 00:24:08;;;;;;;0.10;0.10;;;;;;;;;;4997635;28;20034;-82
2023/04/09 00:26:33;;;;;;;0.10;0.10;;;;;;;;;;5014774;28;20038;-82
2023/04/09 00:28:59;;;;;;;0.10;0.10;;;;;;;;;;5014619;28;20034;-82
2023/04/09 00:31:24;;;;;;;0.10;0.10;;;;;;;;;;5014345;28;20057;-82
2023/04/09 00:33:50;;;;;;;0.55;0.55;;;;;;;;;;4996660;28;20486;-82
2023/04/09 00:36:15;;;;;;;0.10;0.10;;;;;;;;;;5014284;28;20116;-83
2023/04/09 00:38:41;;;;;;;0.25;0.25;;;;;;;;;;5014651;28;20080;-83
2023/04/09 00:41:07;;;;;;;0.10;0.10;;;;;;;;;;4996609;28;20042;-83
2023/04/09 00:43:32;;;;;;;0.70;0.70;;;;;;;;;;4996793;28;20418;-82
2023/04/09 00:45:58;;;;;;;0.10;0.10;;;;;;;;;;5014518;28;20029;-81
2023/04/09 00:48:24;;;;;;;0.10;0.10;;;;;;;;;;4996621;28;20535;-81
2023/04/09 00:50:49;;;;;;;0.10;0.10;;;;;;;;;;5014273;28;20057;-81
2023/04/09 00:53:15;;;;;;;0.45;0.45;;;;;;;;;;4996836;28;20049;-81
2023/04/09 00:55:41;;;;;;;0.05;0.05;;;;;;;;;;4996480;28;20045;-82
2023/04/09 00:58:07;;;;;;;0.10;0.10;;;;;;;;;;5013820;28;20033;-81
2023/04/09 01:00:32;;;;;;;0.10;0.10;;;;;;;;;;4996342;28;20041;-81
2023/04/09 01:02:58;;;;;;;0.10;0.10;;;;;;;;;;4996152;28;20053;-81
2023/04/09 01:05:27;;;;;;;0.28;0.28;;;;;;;;;;4995497;28;20034;-81
2023/04/09 01:07:59;;;;;;;0.13;0.13;;;;;;;;;;5013856;28;20073;-81
2023/04/09 01:10:24;;;;;;;0.20;0.20;;;;;;;;;;4996165;28;20038;-81
2023/04/09 01:12:59;;;;;;;0.20;0.20;;;;;;;;;;5013821;28;20121;-81
2023/04/09 01:15:25;;;;;;;0.20;0.20;;;;;;;;;;4979890;28;20033;-80
2023/04/09 01:18:01;;;;;;;2.17;2.08;;;;;;;;;;5013793;28;20084;-82
2023/04/09 01:20:33;;;;;;;0.13;0.13;;;;;;;;;;4996022;28;20037;-81
2023/04/09 01:23:06;;;;;;;0.32;0.32;;;;;;;;;;5013568;28;20112;-81
2023/04/09 01:25:52;;;;;;;0.10;0.10;;;;;;;;;;4995976;28;20044;-81
2023/04/09 01:28:19;;;;;;;0.20;0.20;;;;;;;;;;4996070;28;20092;-82
2023/04/09 01:30:51;;;;;;;4.03;2.00;;;;;;;;;;4995845;28;20078;-82
2023/04/09 01:33:18;;;;;;;2.38;1.25;;;;;;;;;;4995703;28;20040;-81
2023/04/09 01:35:48;;;;;;;0.10;0.10;;;;;;;;;;4995896;28;20030;-82
2023/04/09 01:38:15;;;;;;;0.20;0.20;;;;;;;;;;5013465;28;20490;-81
2023/04/09 01:40:41;;;;;;;0.20;0.20;;;;;;;;;;4995644;28;20042;-81
2023/04/09 01:43:07;;;;;;;0.20;0.20;;;;;;;;;;5013495;28;20026;-81
2023/04/09 01:45:33;;;;;;;0.10;0.10;;;;;;;;;;4995843;28;20075;-81
2023/04/09 01:47:59;;;;;;;0.20;0.20;;;;;;;;;;4995768;28;20128;-81
2023/04/09 01:50:24;;;;;;;0.10;0.10;;;;;;;;;;4995792;28;20044;-81
2023/04/09 01:52:50;;;;;;;0.38;0.38;;;;;;;;;;4995772;28;20026;-80
2023/04/09 01:55:15;;;;;;;0.10;0.10;;;;;;;;;;5013216;28;20382;-81
2023/04/09 01:57:41;;;;;;;0.10;0.10;;;;;;;;;;4995565;28;20058;-81
2023/04/09 02:00:08;;;;;;;0.10;0.10;;;;;;;;;;4995556;28;20453;-81
2023/04/09 02:02:53;;;;;;;0.10;0.10;;;;;;;;;;5013303;28;20361;-81
2023/04/09 02:05:26;;;;;;;0.10;0.10;;;;;;;;;;4995193;28;20054;-80
2023/04/09 02:07:55;;;;;;;0.10;0.10;;;;;;;;;;4995470;28;20190;-80
2023/04/09 02:10:25;;;;;;;0.20;0.20;;;;;;;;;;4995682;28;20030;-81
2023/04/09 02:12:52;;;;;;;0.10;0.10;;;;;;;;;;5013172;28;20034;-80
2023/04/09 02:15:20;;;;;;;0.10;0.10;;;;;;;;;;4995578;28;20025;-81
2023/04/09 02:17:46;;;;;;;0.10;0.10;;;;;;;;;;5016023;28;20117;-81
2023/04/09 02:20:15;;;;;;;0.10;0.10;;;;;;;;;;5016418;28;20056;-81
2023/04/09 02:22:40;;;;;;;0.10;0.10;;;;;;;;;;4999125;28;20037;-81
2023/04/09 02:25:06;;;;;;;0.10;0.10;;;;;;;;;;4982917;28;20124;-82
2023/04/09 02:27:31;;;;;;;0.10;0.10;;;;;;;;;;4982844;28;20025;-81
2023/04/09 02:30:03;;;;;;;0.95;0.95;;;;;;;;;;4982868;28;20034;-80
2023/04/09 02:32:30;;;;;;;0.17;0.17;;;;;;;;;;5015631;28;20581;-81
2023/04/09 02:34:55;;;;;;;0.13;0.13;;;;;;;;;;5016475;28;20125;-81
2023/04/09 02:37:20;;;;;;;0.30;0.30;;;;;;;;;;4983537;28;20490;-80
2023/04/09 02:39:46;;;;;;;0.10;0.10;;;;;;;;;;5017073;28;20045;-81
2023/04/09 02:42:11;;;;;;;0.10;0.10;;;;;;;;;;4999179;28;20034;-80
2023/04/09 02:44:36;;;;;;;0.10;0.10;;;;;;;;;;4998640;28;20030;-80
2023/04/09 02:47:02;;;;;;;0.90;0.90;;;;;;;;;;4982518;28;20056;-81
2023/04/09 02:49:28;;;;;;;0.10;0.10;;;;;;;;;;4998575;28;20477;-79
2023/04/09 02:51:53;;;;;;;0.10;0.10;;;;;;;;;;5015954;28;20485;-80
2023/04/09 02:54:19;;;;;;;0.10;0.10;;;;;;;;;;4998368;28;20033;-80
2023/04/09 02:56:44;;;;;;;0.10;0.10;;;;;;;;;;4982294;28;20030;-81
2023/04/09 02:59:10;;;;;;;0.10;0.10;;;;;;;;;;5016015;28;20565;-80
2023/04/09 03:01:35;;;;;;;0.40;0.40;;;;;;;;;;4997295;28;20072;-78
2023/04/09 03:04:01;;;;;;;0.10;0.10;;;;;;;;;;4977422;28;20129;-80
2023/04/09 03:06:27;;;;;;;0.10;0.10;;;;;;;;;;4994590;28;20144;-81
2023/04/09 03:08:52;;;;;;;0.10;0.10;;;;;;;;;;4994403;28;20088;-79
2023/04/09 03:11:18;;;;;;;0.10;0.10;;;;;;;;;;5012192;28;20036;-80
2023/04/09 03:13:43;;;;;;;0.10;0.10;;;;;;;;;;5012114;28;20470;-80
2023/04/09 03:16:09;;;;;;;0.25;0.25;;;;;;;;;;5012009;28;20041;-81
2023/04/09 03:18:35;;;;;;;0.10;0.10;;;;;;;;;;4994406;28;20481;-81
2023/04/09 03:21:07;;;;;;;0.90;0.65;;;;;;;;;;5011270;28;20432;-77
2023/04/09 03:23:34;;;;;;;0.10;0.10;;;;;;;;;;4994193;28;20426;-81
2023/04/09 03:26:04;;;;;;;0.20;0.20;;;;;;;;;;4977893;28;20124;-80
2023/04/09 03:28:34;;;;;;;0.10;0.10;;;;;;;;;;4978088;28;20033;-80
2023/04/09 03:31:01;;;;;;;0.10;0.10;;;;;;;;;;4993602;28;20102;-78
2023/04/09 03:33:27;;;;;;;6.22;4.47;;;;;;;;;;4993922;28;20032;-79
2023/04/09 03:35:55;;;;;;;0.10;0.10;;;;;;;;;;4994298;28;20038;-80
2023/04/09 03:38:39;;;;;;;0.20;0.20;;;;;;;;;;5011780;28;20501;-80
2023/04/09 03:41:10;;;;;;;0.10;0.10;;;;;;;;;;4993677;28;20038;-79
2023/04/09 03:43:37;;;;;;;1.20;1.17;;;;;;;;;;4993437;28;20033;-78
2023/04/09 03:46:13;;;;;;;0.10;0.10;;;;;;;;;;4993743;28;20370;-81
2023/04/09 03:48:40;;;;;;;0.10;0.10;;;;;;;;;;4993725;28;20033;-80
2023/04/09 03:51:05;;;;;;;0.10;0.10;;;;;;;;;;4993729;28;20393;-81
2023/04/09 03:53:36;;;;;;;4.28;1.92;;;;;;;;;;4993720;28;20038;-79
2023/04/09 03:56:05;;;;;;;0.10;0.10;;;;;;;;;;4993560;28;20034;-81
2023/04/09 03:58:32;;;;;;;0.30;0.30;;;;;;;;;;4993325;28;20050;-80
2023/04/09 04:00:58;;;;;;;0.10;0.10;;;;;;;;;;4993267;28;20513;-80
2023/04/09 04:03:37;;;;;;;0.10;0.10;;;;;;;;;;5011065;28;20042;-78
2023/04/09 04:06:17;;;;;;;0.10;0.10;;;;;;;;;;4993164;28;20490;-80
2023/04/09 04:09:01;;;;;;;0.10;0.10;;;;;;;;;;4995819;28;20126;-79
2023/04/09 04:11:38;;;;;;;0.10;0.10;;;;;;;;;;4993003;28;20043;-81
2023/04/09 04:14:03;;;;;;;0.10;0.10;;;;;;;;;;4992941;28;20041;-78
2023/04/09 04:16:28;;;;;;;0.10;0.10;;;;;;;;;;4993243;28;20073;-80
2023/04/09 04:18:54;;;;;;;0.10;0.10;;;;;;;;;;4992696;28;20042;-80
2023/04/09 04:21:20;;;;;;;0.10;0.10;;;;;;;;;;4976397;28;20943;-80
2023/04/09 04:23:54;;;;;;;0.22;0.22;;;;;;;;;;4992788;28;20018;-79
2023/04/09 04:26:24;;;;;;;0.10;0.10;;;;;;;;;;4992373;28;20169;-79
2023/04/09 04:28:49;;;;;;;0.20;0.20;;;;;;;;;;5010760;28;20129;-79
2023/04/09 04:31:28;;;;;;;0.10;0.10;;;;;;;;;;4992580;28;20061;-79
2023/04/09 04:33:56;;;;;;;0.10;0.10;;;;;;;;;;4992534;28;20124;-81
2023/04/09 04:36:22;;;;;;;0.20;0.20;;;;;;;;;;4976615;28;20137;-80
2023/04/09 04:38:50;;;;;;;0.52;0.52;;;;;;;;;;4992883;28;20565;-80
2023/04/09 04:41:23;;;;;;;0.10;0.10;;;;;;;;;;4992196;28;20393;-79
2023/04/09 04:44:02;;;;;;;0.17;0.17;;;;;;;;;;4992502;28;20148;-80
2023/04/09 04:46:27;;;;;;;0.13;0.13;;;;;;;;;;4992193;28;20037;-78
2023/04/09 04:48:52;;;;;;;0.20;0.20;;;;;;;;;;4992257;28;20037;-79
2023/04/09 04:51:20;;;;;;;0.10;0.10;;;;;;;;;;4992118;28;20072;-78
2023/04/09 04:53:58;;;;;;;0.10;0.10;;;;;;;;;;4992475;28;20038;-80
2023/04/09 04:56:23;;;;;;;0.10;0.10;;;;;;;;;;4992175;28;20034;-79
2023/04/09 04:59:00;;;;;;;0.68;0.68;;;;;;;;;;4992388;28;20050;-78
2023/04/09 05:01:27;;;;;;;0.10;0.10;;;;;;;;;;4992330;28;20539;-78
2023/04/09 05:03:53;;;;;;;0.10;0.10;;;;;;;;;;4992030;28;20125;-78
2023/04/09 05:06:26;;;;;;;0.20;0.20;;;;;;;;;;4992052;28;20619;-78
2023/04/09 05:08:56;;;;;;;0.10;0.10;;;;;;;;;;4992029;28;20040;-79
2023/04/09 05:11:26;;;;;;;0.10;0.10;;;;;;;;;;4991699;28;20026;-79
2023/04/09 05:13:52;;;;;;;0.10;0.10;;;;;;;;;;4991826;28;20045;-76
2023/04/09 05:16:19;;;;;;;0.10;0.10;;;;;;;;;;4991971;28;20038;-79
2023/04/09 05:18:51;;;;;;;0.20;0.20;;;;;;;;;;4992101;28;20077;-78
2023/04/09 05:21:17;;;;;;;0.13;0.13;;;;;;;;;;4992334;28;20444;-78
2023/04/09 05:23:44;;;;;;;0.20;0.20;;;;;;;;;;4992124;28;20071;-79
2023/04/09 05:26:10;;;;;;;0.20;0.20;;;;;;;;;;5009555;28;20041;-79
2023/04/09 05:28:47;;;;;;;0.20;0.20;;;;;;;;;;4977440;28;20096;-79
2023/04/09 05:31:17;;;;;;;0.10;0.10;;;;;;;;;;4991757;28;20474;-80
2023/04/09 05:33:52;;;;;;;0.10;0.10;;;;;;;;;;4992168;28;20040;-79
2023/04/09 05:36:23;;;;;;;0.10;0.10;;;;;;;;;;4991534;28;20073;-78
2023/04/09 05:38:50;;;;;;;0.20;0.20;;;;;;;;;;5009941;28;20428;-79
2023/04/09 05:41:15;;;;;;;6.13;2.70;;;;;;;;;;4991771;28;20038;-79
2023/04/09 05:44:04;;;;;;;0.10;0.10;;;;;;;;;;4992915;28;20062;-79
2023/04/09 05:46:30;;;;;;;0.17;0.17;;;;;;;;;;4992203;28;20081;-79
2023/04/09 05:48:56;;;;;;;0.20;0.20;;;;;;;;;;4991512;28;20038;-78
2023/04/09 05:51:23;;;;;;;0.10;0.10;;;;;;;;;;4992223;28;20036;-78
2023/04/09 05:53:49;;;;;;;0.10;0.10;;;;;;;;;;4979653;28;20124;-77
2023/04/09 05:56:15;;;;;;;0.20;0.20;;;;;;;;;;4995627;28;20409;-78
2023/04/09 05:58:48;;;;;;;0.10;0.10;;;;;;;;;;5013197;28;20026;-78
2023/04/09 06:01:14;;;;;;;0.13;0.13;;;;;;;;;;4995417;28;20378;-77
2023/04/09 06:03:39;;;;;;;0.10;0.10;;;;;;;;;;5013646;28;20030;-77
2023/04/09 06:06:05;;;;;;;0.35;0.35;;;;;;;;;;5013046;28;20270;-78
2023/04/09 06:08:32;;;;;;;0.40;0.40;;;;;;;;;;4995648;28;20034;-78
2023/04/09 06:10:58;;;;;;;0.10;0.10;;;;;;;;;;5013262;28;20033;-79
2023/04/09 06:13:23;;;;;;;0.10;0.10;;;;;;;;;;4995267;28;20049;-78
2023/04/09 06:15:49;;;;;;;0.10;0.10;;;;;;;;;;5013172;28;20084;-77
2023/04/09 06:18:15;;;;;;;0.10;0.10;;;;;;;;;;4995421;28;20393;-79
2023/04/09 06:20:40;;;;;;;0.20;0.20;;;;;;;;;;5012574;28;20543;-77
2023/04/09 06:23:06;;;;;;;0.10;0.10;;;;;;;;;;4995141;28;20525;-80
2023/04/09 06:25:31;;;;;;;0.10;0.10;;;;;;;;;;5013179;28;20489;-78
2023/04/09 06:27:57;;;;;;;0.10;0.10;;;;;;;;;;5012804;28;20038;-77
2023/04/09 06:30:22;;;;;;;4.63;4.38;;;;;;;;;;5012705;28;20109;-79
2023/04/09 06:32:48;;;;;;;0.20;0.20;;;;;;;;;;5012978;28;20380;-79
2023/04/09 06:35:14;;;;;;;0.20;0.20;;;;;;;;;;5012410;28;20037;-79
2023/04/09 06:37:39;;;;;;;0.10;0.10;;;;;;;;;;5012671;28;20884;-78
2023/04/09 06:40:06;;;;;;;0.20;0.20;;;;;;;;;;5012537;28;20073;-80
2023/04/09 06:42:31;;;;;;;0.20;0.20;;;;;;;;;;5012381;28;20508;-80
2023/04/09 06:45:08;;;;;;;0.15;0.15;;;;;;;;;;4994561;28;20441;-80
2023/04/09 06:47:34;;;;;;;0.40;0.38;;;;;;;;;;4979052;28;20037;-80
2023/04/09 06:49:59;;;;;;;0.20;0.20;;;;;;;;;;5012297;28;20486;-79
2023/04/09 06:52:25;;;;;;;0.30;0.30;;;;;;;;;;5012247;28;20025;-78
2023/04/09 06:54:50;;;;;;;0.10;0.10;;;;;;;;;;4978767;28;20543;-77
2023/04/09 06:57:16;;;;;;;0.20;0.20;;;;;;;;;;5012084;28;20032;-80
2023/04/09 06:59:41;;;;;;;0.10;0.10;;;;;;;;;;5012221;28;20026;-77
2023/04/09 07:02:07;;;;;;;0.30;0.30;;;;;;;;;;5011837;28;20478;-80
2023/04/09 07:04:32;;;;;;;0.10;0.10;;;;;;;;;;5010920;28;20062;-80
2023/04/09 07:06:58;;;;;;;0.40;0.40;;;;;;;;;;5012426;28;20033;-78
2023/04/09 07:09:24;;;;;;;0.75;0.68;;;;;;;;;;5012323;28;20038;-76
2023/04/09 07:11:49;;;;;;;0.45;0.32;;;;;;;;;;5012376;28;20030;-78
2023/04/09 07:14:15;;;;;;;0.17;0.17;;;;;;;;;;5012318;28;20034;-78
2023/04/09 07:16:40;;;;;;;1.27;0.60;;;;;;;;;;5015561;28;20034;-78
2023/04/09 07:19:06;;;;;;;0.22;0.22;;;;;;;;;;5016363;28;20030;-78
2023/04/09 07:21:31;;;;;;;0.10;0.10;;;;;;;;;;5016537;28;20393;-80
2023/04/09 07:23:57;;;;;;;0.38;0.22;;;;;;;;;;4995583;28;20025;-79
2023/04/09 07:26:22;;;;;;;0.65;0.60;;;;;;;;;;5012392;28;20030;-79
2023/04/09 07:28:47;;;;;;;0.10;0.10;;;;;;;;;;4994318;28;20509;-80
2023/04/09 07:31:13;;;;;;;0.55;0.55;;;;;;;;;;5011889;28;20034;-80
2023/04/09 07:33:38;;;;;;;0.40;0.40;;;;;;;;;;4994289;28;20559;-80
2023/04/09 07:36:03;;;;;;;0.10;0.10;;;;;;;;;;5011617;28;20113;-79
2023/04/09 07:38:29;;;;;;;0.10;0.10;;;;;;;;;;5011900;28;20038;-79
2023/04/09 07:40:54;;;;;;;0.10;0.10;;;;;;;;;;5011738;28;20081;-79
2023/04/09 07:43:20;;;;;;;0.10;0.10;;;;;;;;;;5011929;28;20025;-78
2023/04/09 07:45:47;;;;;;;0.10;0.10;;;;;;;;;;5011561;28;20038;-78
2023/04/09 07:48:13;;;;;;;0.50;0.40;;;;;;;;;;5011657;28;20124;-77
2023/04/09 07:50:38;;;;;;;0.10;0.10;;;;;;;;;;5011762;28;20117;-79
2023/04/09 07:53:03;;;;;;;0.10;0.10;;;;;;;;;;5011343;28;20482;-78
2023/04/09 07:55:29;;;;;;;0.10;0.10;;;;;;;;;;5011349;28;20041;-78
2023/04/09 07:57:54;;;;;;;0.10;0.10;;;;;;;;;;5011375;28;20080;-79
2023/04/09 08:00:20;;;;;;;0.10;0.10;;;;;;;;;;5011284;28;20442;-78
2023/04/09 08:02:45;;;;;;;0.10;0.10;;;;;;;;;;5011458;28;20426;-78
2023/04/09 08:05:10;;;;;;;0.10;0.10;;;;;;;;;;5011166;28;20073;-78
2023/04/09 08:07:36;;;;;;;0.10;0.10;;;;;;;;;;4993711;28;20024;-79
2023/04/09 08:10:01;;;;;;;0.17;0.17;;;;;;;;;;5011272;28;20068;-79
2023/04/09 08:12:27;;;;;;;0.20;0.20;;;;;;;;;;5010970;28;20034;-78
2023/04/09 08:14:52;;;;;;;0.13;0.13;;;;;;;;;;5010850;28;20515;-77
2023/04/09 08:17:18;;;;;;;1.00;1.00;;;;;;;;;;5010797;28;20080;-79
2023/04/09 08:19:43;;;;;;;0.13;0.13;;;;;;;;;;5010804;28;20026;-79
2023/04/09 08:22:08;;;;;;;0.20;0.20;;;;;;;;;;5010815;28;20080;-79
2023/04/09 08:24:34;;;;;;;0.68;0.63;;;;;;;;;;5010871;28;20101;-79
2023/04/09 08:27:00;;;;;;;0.43;0.43;;;;;;;;;;5010707;28;20110;-80
2023/04/09 08:29:26;;;;;;;0.10;0.10;;;;;;;;;;5010679;28;20030;-78
2023/04/09 08:31:51;;;;;;;0.10;0.10;;;;;;;;;;5009700;28;20034;-78
2023/04/09 08:34:19;;;;;;;0.10;0.10;;;;;;;;;;5010325;28;20045;-79
2023/04/09 08:36:46;;;;;;;0.40;0.40;;;;;;;;;;5010628;28;20045;-79
2023/04/09 08:39:11;;;;;;;0.20;0.20;;;;;;;;;;4993174;28;20485;-80
2023/04/09 08:41:40;;;;;;;0.20;0.20;;;;;;;;;;5010296;28;20034;-80
2023/04/09 08:44:05;;;;;;;0.23;0.23;;;;;;;;;;5010559;28;20037;-80
2023/04/09 08:46:30;;;;;;;0.30;0.30;;;;;;;;;;5010422;28;20037;-79
2023/04/09 08:48:56;;;;;;;0.47;0.47;;;;;;;;;;5010459;28;20034;-79
2023/04/09 08:51:22;;;;;;;0.57;0.57;;;;;;;;;;5010337;28;20030;-79
2023/04/09 08:53:51;;;;;;;0.15;0.15;;;;;;;;;;5009955;28;20034;-79
2023/04/09 08:56:17;;;;;;;0.10;0.10;;;;;;;;;;5010255;28;20048;-80
2023/04/09 08:58:43;;;;;;;0.25;0.25;;;;;;;;;;5010164;28;20034;-79
2023/04/09 09:01:20;;;;;;;1.58;0.88;;;;;;;;;;5009913;28;20061;-79
2023/04/09 09:03:55;;;;;;;0.38;0.38;;;;;;;;;;5009962;28;20112;-79
2023/04/09 09:06:21;;;;;;;0.20;0.20;;;;;;;;;;4993133;28;20041;-78
2023/04/09 09:08:58;;;;;;;0.52;0.52;;;;;;;;;;5009898;28;20034;-79
2023/04/09 09:11:29;;;;;;;0.20;0.20;;;;;;;;;;5009922;28;20030;-79
2023/04/09 09:14:17;;;;;;;0.55;0.35;;;;;;;;;;5009998;28;20034;-79
2023/04/09 09:17:06;;;;;;;0.20;0.20;;;;;;;;;;4994847;28;20061;-79
2023/04/09 09:19:32;;;;;;;0.30;0.30;;;;;;;;;;5010347;28;20272;-79
2023/04/09 09:22:02;;;;;;;0.30;0.30;;;;;;;;;;5009843;28;20060;-80
2023/04/09 09:24:28;;;;;;;0.20;0.20;;;;;;;;;;5009799;28;20046;-79
2023/04/09 09:26:53;;;;;;;0.13;0.13;;;;;;;;;;5009129;28;20037;-80
2023/04/09 09:29:20;;;;;;;0.13;0.13;;;;;;;;;;5009856;28;20057;-79
2023/04/09 09:31:49;;;;;;;0.73;0.40;;;;;;;;;;5010956;28;20535;-81
2023/04/09 09:34:16;;;;;;;0.20;0.20;;;;;;;;;;5015361;28;20065;-79
2023/04/09 09:36:42;;;;;;;0.30;0.30;;;;;;;;;;5015024;28;20044;-81
2023/04/09 09:39:11;;;;;;;0.57;0.57;;;;;;;;;;5012388;28;20030;-79
2023/04/09 09:41:37;;;;;;;;;;;;;;;;;;5010568;28;20057;-79
2023/04/09 09:44:05;;;;;;;0.73;0.50;;;;;;;;;;5010365;28;19921;-81
2023/04/09 09:46:35;;;;;;;0.40;0.40;;;;;;;;;;5010079;28;20065;-81
2023/04/09 09:49:00;;;;;;;0.20;0.20;;;;;;;;;;5010242;28;20042;-80
2023/04/09 09:51:26;;;;;;;0.73;0.63;;;;;;;;;;5009966;28;20038;-79
2023/04/09 09:53:54;;;;;;;0.20;0.20;;;;;;;;;;5009592;28;20655;-80
2023/04/09 09:56:20;;;;;;;0.22;0.22;;;;;;;;;;5009923;28;20045;-79
2023/04/09 09:58:49;;;;;;;0.30;0.30;;;;;;;;;;5009763;28;20026;-79
2023/04/09 10:01:17;;;;;;;0.22;0.22;;;;;;;;;;5009530;28;20064;-80
2023/04/09 10:03:43;;;;;;;0.30;0.30;;;;;;;;;;4991936;28;20045;-79
2023/04/09 10:06:09;;;;;;;0.20;0.20;;;;;;;;;;5009903;28;20169;-80
2023/04/09 10:08:36;;;;;;;0.43;0.35;;;;;;;;;;5009664;28;20048;-84
2023/04/09 10:11:03;;;;;;;0.22;0.22;;;;;;;;;;5009819;28;20050;-79
2023/04/09 10:13:31;;;;;;;0.68;0.68;;;;;;;;;;5009804;28;20061;-79
2023/04/09 10:15:57;;;;;;;0.20;0.20;;;;;;;;;;5009426;28;20104;-78
2023/04/09 10:18:23;;;;;;;0.77;0.70;;;;;;;;;;4992404;28;20042;-86
2023/04/09 10:20:51;;;;;;;0.70;0.70;;;;;;;;;;4991783;28;20088;-80
2023/04/09 10:23:35;;;;;;;1.23;0.65;;;;;;;;;;5009292;28;20852;-80
2023/04/09 10:26:00;;;;;;;0.25;0.25;;;;;;;;;;5009495;28;20034;-79
2023/04/09 10:28:26;;;;;;;0.15;0.15;;;;;;;;;;5009744;28;20034;-80
2023/04/09 10:30:52;;;;;;;0.10;0.10;;;;;;;;;;4991979;28;20182;-78
2023/04/09 10:33:25;;;;;;;0.20;0.20;;;;;;;;;;5009129;28;20050;-79
2023/04/09 10:35:50;;;;;;;0.20;0.20;;;;;;;;;;4991643;28;20096;-80
2023/04/09 10:38:16;;;;;;;0.25;0.25;;;;;;;;;;5011340;28;20034;-80
2023/04/09 10:40:52;;;;;;;0.55;0.52;;;;;;;;;;4995840;28;20037;-80
2023/04/09 10:43:21;;;;;;;0.22;0.22;;;;;;;;;;5012814;28;20152;-79
2023/04/09 10:45:52;;;;;;;0.13;0.13;;;;;;;;;;5012592;28;20045;-78
2023/04/09 10:48:18;;;;;;;0.85;0.80;;;;;;;;;;5012866;28;20034;-87
2023/04/09 10:50:43;;;;;;;1.13;0.77;;;;;;;;;;5012642;28;20037;-82
2023/04/09 10:53:20;;;;;;;0.43;0.40;;;;;;;;;;5012247;28;20036;-83
2023/04/09 10:55:49;;;;;;;0.20;0.20;;;;;;;;;;5012822;28;20084;-80
2023/04/09 10:58:15;;;;;;;0.55;0.20;;;;;;;;;;5012275;28;20496;-81
2023/04/09 11:00:44;;;;;;;1.60;0.80;;;;;;;;;;5012433;28;20030;-86
2023/04/09 11:03:10;;;;;;;1.85;1.15;;;;;;;;;;5012257;28;20539;-83
2023/04/09 11:05:38;;;;;;;1.48;1.38;;;;;;;;;;5012093;28;20033;-86
2023/04/09 11:08:11;;;;;;;0.82;0.57;;;;;;;;;;5012492;28;20069;-81
2023/04/09 11:10:37;;;;;;;4.78;1.15;;;;;;;;;;5012309;28;20087;-82
2023/04/09 11:13:03;;;;;;;0.43;0.32;;;;;;;;;;5012167;28;20045;-85
2023/04/09 11:15:28;;;;;;;1.02;0.82;;;;;;;;;;4994694;28;20065;-80
2023/04/09 11:17:54;;;;;;;1.88;1.15;;;;;;;;;;5012155;28;20026;-81
2023/04/09 11:20:21;;;;;;;0.20;0.20;;;;;;;;;;4994722;28;20041;-86
2023/04/09 11:22:50;;;;;;;2.03;1.10;;;;;;;;;;5011941;28;20034;-86
2023/04/09 11:25:19;;;;;;;0.85;0.57;;;;;;;;;;5012092;28;20046;-84
2023/04/09 11:27:45;;;;;;;2.58;1.77;;;;;;;;;;5012072;28;20461;-85
2023/04/09 11:30:11;;;;;;;2.88;1.25;;;;;;;;;;5012222;28;20036;-85
2023/04/09 11:32:36;;;;;;;2.22;1.40;;;;;;;;;;5012097;28;20113;-86
2023/04/09 11:35:02;;;;;;;0.52;0.43;;;;;;;;;;5011521;28;20400;-84
2023/04/09 11:37:28;;;;;;;3.53;1.52;;;;;;;;;;4994123;28;20497;-83
2023/04/09 11:39:53;;;;;;;1.67;1.02;;;;;;;;;;4994531;28;20045;-84
2023/04/09 11:42:24;;;;;;;1.65;0.90;;;;;;;;;;5012386;28;20069;-84
2023/04/09 11:44:51;;;;;;;1.85;1.10;;;;;;;;;;4994556;28;20069;-86
2023/04/09 11:47:16;;;;;;;1.25;0.73;;;;;;;;;;5014398;28;20074;-84
2023/04/09 11:49:42;;;;;;;2.78;1.33;;;;;;;;;;5015976;28;20072;-84
2023/04/09 11:52:08;;;;;;;0.68;0.63;;;;;;;;;;5016619;28;20033;-81
2023/04/09 11:54:33;;;;;;;1.67;0.98;;;;;;;;;;5013066;28;20533;-78
2023/04/09 11:56:59;;;;;;;1.67;1.00;;;;;;;;;;5012210;28;20030;-84
2023/04/09 11:59:24;;;;;;;1.83;1.02;;;;;;;;;;5011360;28;20034;-86
2023/04/09 12:01:50;;;;;;;3.85;1.05;;;;;;;;;;5011383;28;20052;-86
2023/04/09 12:04:20;;;;;;;3.30;1.48;;;;;;;;;;5011482;28;20038;-85
2023/04/09 12:06:45;;;;;;;1.38;1.02;;;;;;;;;;5012049;28;20069;-86
2023/04/09 12:09:13;;;;;;;2.08;1.15;;;;;;;;;;5010759;28;20072;-86
2023/04/09 12:11:40;;;;;;;4.53;1.38;;;;;;;;;;5011361;28;20113;-85
2023/04/09 12:14:06;;;;;;;1.70;1.00;;;;;;;;;;5011384;28;20041;-85
2023/04/09 12:16:33;;;;;;;1.10;0.60;;;;;;;;;;5011057;28;20038;-85
2023/04/09 12:19:07;;;;;;;1.73;0.70;;;;;;;;;;5011346;28;20497;-86
2023/04/09 12:21:46;;;;;;;3.05;1.60;;;;;;;;;;5011446;28;20547;-86
2023/04/09 12:24:12;;;;;;;1.50;1.03;;;;;;;;;;5011196;28;20046;-85
2023/04/09 12:26:37;;;;;;;1.77;0.93;;;;;;;;;;5010899;28;20041;-83
2023/04/09 12:29:02;;;;;;;2.03;1.20;;;;;;;;;;5010578;28;20428;-81
2023/04/09 12:31:28;;;;;;;3.78;2.17;;;;;;;;;;4993482;28;20065;-84
2023/04/09 12:33:53;;;;;;;7.13;0.80;;;;;;;;;;5011006;28;20065;-82
2023/04/09 12:36:19;;;;;;;2.50;1.45;;;;;;;;;;5010711;28;20528;-82
2023/04/09 12:38:47;;;;;;;0.57;0.50;;;;;;;;;;5010863;28;20443;-87
2023/04/09 12:41:13;;;;;;;1.73;0.98;;;;;;;;;;5010198;28;20046;-83
2023/04/09 12:43:38;;;;;;;0.88;0.70;;;;;;;;;;5010592;28;20129;-79
2023/04/09 12:46:04;;;;;;;0.35;0.32;;;;;;;;;;5010656;28;20034;-80
2023/04/09 12:48:29;;;;;;;1.75;0.77;;;;;;;;;;5010781;28;20068;-82
2023/04/09 12:50:54;;;;;;;2.47;1.40;;;;;;;;;;5010167;28;20073;-85
2023/04/09 12:53:20;;;;;;;2.13;0.95;;;;;;;;;;5010022;28;20061;-81
2023/04/09 12:55:45;;;;;;;1.67;1.00;;;;;;;;;;5010309;28;20042;-82
2023/04/09 12:58:11;;;;;;;2.45;0.85;;;;;;;;;;5010102;28;20026;-85
2023/04/09 13:00:36;;;;;;;6.20;1.00;;;;;;;;;;4992205;28;20485;-85
2023/04/09 13:03:01;;;;;;;1.92;1.23;;;;;;;;;;5009552;28;20041;-83
2023/04/09 13:05:27;;;;;;;2.40;1.00;;;;;;;;;;5010289;28;20094;-86
2023/04/09 13:07:53;;;;;;;1.58;0.93;;;;;;;;;;4992535;28;20120;-86
2023/04/09 13:10:18;;;;;;;5.70;1.40;;;;;;;;;;5009768;28;20072;-79
2023/04/09 13:12:44;;;;;;;6.88;1.50;;;;;;;;;;5010420;28;20614;-84
2023/04/09 13:15:10;;;;;;;2.17;0.90;;;;;;;;;;5009948;28;20549;-80
2023/04/09 13:17:36;;;;;;;1.05;0.75;;;;;;;;;;4992195;28;20501;-82
2023/04/09 13:20:02;;;;;;;4.63;1.30;;;;;;;;;;5009882;28;20030;-82
2023/04/09 13:22:27;;;;;;;1.08;0.85;;;;;;;;;;5009662;28;20489;-81
2023/04/09 13:24:53;;;;;;;0.55;0.55;;;;;;;;;;5009764;28;20040;-81
2023/04/09 13:27:18;;;;;;;1.13;0.65;;;;;;;;;;5009636;28;20036;-82
2023/04/09 13:29:43;;;;;;;2.58;1.23;;;;;;;;;;5010073;28;20482;-81
2023/04/09 13:32:09;;;;;;;2.53;1.20;;;;;;;;;;5009789;28;20034;-83
2023/04/09 13:34:35;;;;;;;1.77;1.10;;;;;;;;;;5009946;28;20038;-80
2023/04/09 13:37:03;;;;;;;2.47;1.10;;;;;;;;;;5010181;28;20038;-81
2023/04/09 13:39:29;;;;;;;1.48;0.90;;;;;;;;;;5009854;28;20112;-82
2023/04/09 13:41:55;;;;;;;3.13;1.08;;;;;;;;;;5009714;28;20449;-80
2023/04/09 13:44:20;;;;;;;1.27;0.88;;;;;;;;;;5009825;28;20418;-81
2023/04/09 13:46:46;;;;;;;5.05;1.50;;;;;;;;;;5009724;28;20036;-82
2023/04/09 13:49:11;;;;;;;1.40;1.17;;;;;;;;;;5009395;28;20234;-79
2023/04/09 13:51:37;;;;;;;1.55;0.95;;;;;;;;;;5009857;28;20117;-83
2023/04/09 13:54:02;;;;;;;3.10;1.27;;;;;;;;;;5010027;28;20081;-78
2023/04/09 13:56:28;;;;;;;3.28;1.45;;;;;;;;;;5009511;28;20073;-79
2023/04/09 13:58:53;;;;;;;0.93;0.63;;;;;;;;;;5010480;28;20068;-81
2023/04/09 14:01:19;;;;;;;0.20;0.20;;;;;;;;;;5010336;28;20053;-84
2023/04/09 14:03:44;;;;;;;1.00;0.85;;;;;;;;;;5013765;28;20038;-86
2023/04/09 14:06:12;;;;;;;0.25;0.25;;;;;;;;;;5010492;28;20377;-80
2023/04/09 14:08:37;;;;;;;0.20;0.20;;;;;;;;;;5010529;28;20025;-81
2023/04/09 14:11:03;;;;;;;0.20;0.20;;;;;;;;;;5009656;28;20030;-82
2023/04/09 14:13:28;;;;;;;0.20;0.20;;;;;;;;;;5012713;28;20038;-81
2023/04/09 14:15:54;;;;;;;0.10;0.10;;;;;;;;;;5013544;28;20038;-81
2023/04/09 14:18:20;;;;;;;0.20;0.20;;;;;;;;;;5013400;28;20036;-80
2023/04/09 14:20:45;;;;;;;0.20;0.20;;;;;;;;;;5013623;28;20284;-79
2023/04/09 14:23:11;;;;;;;0.85;0.50;;;;;;;;;;4995452;28;20609;-80
2023/04/09 14:25:37;;;;;;;1.00;0.60;;;;;;;;;;5013337;28;20084;-79
2023/04/09 14:28:02;;;;;;;0.10;0.10;;;;;;;;;;5013566;28;20460;-80
2023/04/09 14:30:28;;;;;;;0.20;0.20;;;;;;;;;;4995851;28;20065;-80
2023/04/09 14:32:53;;;;;;;0.10;0.10;;;;;;;;;;5013474;28;20504;-80
2023/04/09 14:35:19;;;;;;;0.20;0.20;;;;;;;;;;5013023;28;20105;-80
2023/04/09 14:37:45;;;;;;;0.20;0.20;;;;;;;;;;5012761;28;20057;-80
2023/04/09 14:40:11;;;;;;;0.10;0.10;;;;;;;;;;5012733;28;20041;-81
2023/04/09 14:42:36;;;;;;;0.10;0.10;;;;;;;;;;5012892;28;20104;-80
2023/04/09 14:45:02;;;;;;;0.85;0.85;;;;;;;;;;5012525;28;20040;-81